sensor_id;sensor_type;location;lat;lon;timestamp;P1;durP1;ratioP1;P2;durP2;ratioP2
75603;SDS011;64187;51.010;13.792;2023-02-15T00:02:10;40.72;;;15.57;;
75603;SDS011;64187;51.010;13.792;2023-02-15T00:07:09;36.72;;;15.73;;
75603;SDS011;64187;51.010;13.792;2023-02-15T00:12:08;39.75;;;17.30;;
75603;SDS011;64187;51.010;13.792;2023-02-15T00:17:08;38.13;;;15.60;;
75603;SDS011;64187;51.010;13.792;2023-02-15T00:22:07;39.22;;;16.48;;
75603;SDS011;64187;51.010;13.792;2023-02-15T00:27:06;32.53;;;14.20;;
75603;SDS011;64187;51.010;13.792;2023-02-15T00:32:08;34.88;;;14.98;;
75603;SDS011;64187;51.010;13.792;2023-02-15T00:37:06;34.42;;;14.43;;
75603;SDS011;64187;51.010;13.792;2023-02-15T00:42:05;28.90;;;12.73;;
75603;SDS011;64187;51.010;13.792;2023-02-15T00:47:04;33.70;;;13.48;;
75603;SDS011;64187;51.010;13.792;2023-02-15T00:52:04;29.77;;;13.23;;
75603;SDS011;64187;51.010;13.792;2023-02-15T00:57:02;32.17;;;12.98;;
75603;SDS011;64187;51.010;13.792;2023-02-15T01:02:01;29.17;;;12.45;;
75603;SDS011;64187;51.010;13.792;2023-02-15T01:07:00;32.08;;;13.18;;
75603;SDS011;64187;51.010;13.792;2023-02-15T01:12:03;34.78;;;13.45;;
75603;SDS011;64187;51.010;13.792;2023-02-15T01:17:02;31.35;;;12.85;;
75603;SDS011;64187;51.010;13.792;2023-02-15T01:22:05;32.90;;;12.32;;
75603;SDS011;64187;51.010;13.792;2023-02-15T01:27:06;29.40;;;13.70;;
75603;SDS011;64187;51.010;13.792;2023-02-15T01:32:05;33.80;;;13.93;;
75603;SDS011;64187;51.010;13.792;2023-02-15T01:37:04;27.73;;;12.55;;
75603;SDS011;64187;51.010;13.792;2023-02-15T01:42:03;30.75;;;13.32;;
75603;SDS011;64187;51.010;13.792;2023-02-15T01:47:02;35.28;;;13.73;;
75603;SDS011;64187;51.010;13.792;2023-02-15T01:52:02;28.50;;;12.65;;
75603;SDS011;64187;51.010;13.792;2023-02-15T01:57:05;33.67;;;13.38;;
75603;SDS011;64187;51.010;13.792;2023-02-15T02:02:07;30.92;;;12.07;;
75603;SDS011;64187;51.010;13.792;2023-02-15T02:07:10;29.33;;;13.00;;
75603;SDS011;64187;51.010;13.792;2023-02-15T02:12:12;35.33;;;12.10;;
75603;SDS011;64187;51.010;13.792;2023-02-15T02:17:15;30.92;;;12.13;;
75603;SDS011;64187;51.010;13.792;2023-02-15T02:49:01;26.17;;;10.15;;
75603;SDS011;64187;51.010;13.792;2023-02-15T02:54:03;33.08;;;12.02;;
75603;SDS011;64187;51.010;13.792;2023-02-15T02:59:06;26.23;;;10.57;;
75603;SDS011;64187;51.010;13.792;2023-02-15T03:04:17;29.95;;;12.60;;
75603;SDS011;64187;51.010;13.792;2023-02-15T03:09:25;29.92;;;10.85;;
75603;SDS011;64187;51.010;13.792;2023-02-15T03:14:41;27.42;;;11.35;;
75603;SDS011;64187;51.010;13.792;2023-02-15T03:19:47;28.02;;;11.02;;
75603;SDS011;64187;51.010;13.792;2023-02-15T03:24:58;25.13;;;10.45;;
75603;SDS011;64187;51.010;13.792;2023-02-15T03:30:01;26.33;;;11.18;;
75603;SDS011;64187;51.010;13.792;2023-02-15T03:35:02;22.50;;;9.07;;
75603;SDS011;64187;51.010;13.792;2023-02-15T03:40:09;25.50;;;10.45;;
75603;SDS011;64187;51.010;13.792;2023-02-15T03:45:33;28.20;;;10.63;;
75603;SDS011;64187;51.010;13.792;2023-02-15T03:50:36;22.98;;;9.32;;
75603;SDS011;64187;51.010;13.792;2023-02-15T03:55:55;23.75;;;9.77;;
75603;SDS011;64187;51.010;13.792;2023-02-15T04:00:55;22.30;;;9.55;;
75603;SDS011;64187;51.010;13.792;2023-02-15T04:06:16;22.95;;;9.77;;
75603;SDS011;64187;51.010;13.792;2023-02-15T04:11:15;24.42;;;9.18;;
75603;SDS011;64187;51.010;13.792;2023-02-15T04:16:14;21.75;;;9.05;;
75603;SDS011;64187;51.010;13.792;2023-02-15T04:21:13;22.55;;;9.32;;
75603;SDS011;64187;51.010;13.792;2023-02-15T04:26:30;18.80;;;8.23;;
75603;SDS011;64187;51.010;13.792;2023-02-15T04:31:29;22.85;;;9.32;;
75603;SDS011;64187;51.010;13.792;2023-02-15T04:36:28;22.55;;;8.80;;
75603;SDS011;64187;51.010;13.792;2023-02-15T04:41:27;21.27;;;9.68;;
75603;SDS011;64187;51.010;13.792;2023-02-15T04:46:27;24.10;;;9.63;;
75603;SDS011;64187;51.010;13.792;2023-02-15T04:51:26;19.33;;;8.70;;
75603;SDS011;64187;51.010;13.792;2023-02-15T04:56:25;20.70;;;9.05;;
75603;SDS011;64187;51.010;13.792;2023-02-15T05:01:24;21.58;;;8.80;;
75603;SDS011;64187;51.010;13.792;2023-02-15T05:06:23;21.83;;;8.93;;
75603;SDS011;64187;51.010;13.792;2023-02-15T05:11:22;21.45;;;8.75;;
75603;SDS011;64187;51.010;13.792;2023-02-15T05:16:21;21.25;;;9.00;;
75603;SDS011;64187;51.010;13.792;2023-02-15T05:21:20;18.17;;;8.07;;
75603;SDS011;64187;51.010;13.792;2023-02-15T05:26:20;19.35;;;8.80;;
75603;SDS011;64187;51.010;13.792;2023-02-15T05:31:39;30.42;;;10.68;;
75603;SDS011;64187;51.010;13.792;2023-02-15T05:36:38;17.40;;;8.27;;
75603;SDS011;64187;51.010;13.792;2023-02-15T05:41:37;14.52;;;6.78;;
75603;SDS011;64187;51.010;13.792;2023-02-15T05:46:36;13.68;;;7.55;;
75603;SDS011;64187;51.010;13.792;2023-02-15T05:51:35;18.30;;;8.52;;
75603;SDS011;64187;51.010;13.792;2023-02-15T05:56:34;16.48;;;8.07;;
75603;SDS011;64187;51.010;13.792;2023-02-15T06:01:33;18.10;;;8.30;;
75603;SDS011;64187;51.010;13.792;2023-02-15T06:06:32;18.08;;;7.70;;
75603;SDS011;64187;51.010;13.792;2023-02-15T06:11:33;19.73;;;7.68;;
75603;SDS011;64187;51.010;13.792;2023-02-15T06:16:31;18.27;;;7.53;;
75603;SDS011;64187;51.010;13.792;2023-02-15T06:21:30;16.75;;;7.25;;
75603;SDS011;64187;51.010;13.792;2023-02-15T06:26:29;20.58;;;7.88;;
75603;SDS011;64187;51.010;13.792;2023-02-15T06:31:28;17.13;;;7.78;;
75603;SDS011;64187;51.010;13.792;2023-02-15T06:36:27;20.42;;;7.60;;
75603;SDS011;64187;51.010;13.792;2023-02-15T06:41:27;16.92;;;7.28;;
75603;SDS011;64187;51.010;13.792;2023-02-15T06:46:26;13.32;;;6.53;;
75603;SDS011;64187;51.010;13.792;2023-02-15T06:51:25;14.95;;;6.82;;
75603;SDS011;64187;51.010;13.792;2023-02-15T06:56:24;17.15;;;7.38;;
75603;SDS011;64187;51.010;13.792;2023-02-15T07:01:23;19.15;;;7.53;;
75603;SDS011;64187;51.010;13.792;2023-02-15T07:06:22;16.75;;;7.38;;
75603;SDS011;64187;51.010;13.792;2023-02-15T07:11:21;15.88;;;7.18;;
75603;SDS011;64187;51.010;13.792;2023-02-15T07:16:39;14.52;;;6.28;;
75603;SDS011;64187;51.010;13.792;2023-02-15T07:21:37;20.10;;;8.45;;
75603;SDS011;64187;51.010;13.792;2023-02-15T07:26:36;19.25;;;7.72;;
75603;SDS011;64187;51.010;13.792;2023-02-15T07:31:35;16.30;;;7.80;;
75603;SDS011;64187;51.010;13.792;2023-02-15T07:36:34;15.07;;;7.60;;
75603;SDS011;64187;51.010;13.792;2023-02-15T07:41:33;16.83;;;8.07;;
75603;SDS011;64187;51.010;13.792;2023-02-15T07:46:35;17.20;;;7.78;;
75603;SDS011;64187;51.010;13.792;2023-02-15T07:51:34;17.25;;;7.57;;
75603;SDS011;64187;51.010;13.792;2023-02-15T07:56:33;18.48;;;7.40;;
75603;SDS011;64187;51.010;13.792;2023-02-15T08:01:36;17.88;;;7.10;;
75603;SDS011;64187;51.010;13.792;2023-02-15T08:06:35;16.27;;;6.05;;
75603;SDS011;64187;51.010;13.792;2023-02-15T08:11:36;16.45;;;6.90;;
75603;SDS011;64187;51.010;13.792;2023-02-15T08:16:43;13.57;;;6.55;;
75603;SDS011;64187;51.010;13.792;2023-02-15T08:21:45;15.75;;;6.78;;
75603;SDS011;64187;51.010;13.792;2023-02-15T08:26:47;15.27;;;6.32;;
75603;SDS011;64187;51.010;13.792;2023-02-15T08:31:46;13.63;;;6.80;;
75603;SDS011;64187;51.010;13.792;2023-02-15T08:36:46;11.80;;;6.47;;
75603;SDS011;64187;51.010;13.792;2023-02-15T08:41:46;14.45;;;6.63;;
75603;SDS011;64187;51.010;13.792;2023-02-15T08:46:47;14.43;;;5.88;;
75603;SDS011;64187;51.010;13.792;2023-02-15T08:51:47;14.80;;;6.05;;
75603;SDS011;64187;51.010;13.792;2023-02-15T08:56:47;14.75;;;6.65;;
75603;SDS011;64187;51.010;13.792;2023-02-15T09:01:47;17.52;;;6.20;;
75603;SDS011;64187;51.010;13.792;2023-02-15T09:06:48;13.20;;;6.20;;
75603;SDS011;64187;51.010;13.792;2023-02-15T09:11:49;14.40;;;6.75;;
75603;SDS011;64187;51.010;13.792;2023-02-15T09:16:56;15.80;;;6.93;;
75603;SDS011;64187;51.010;13.792;2023-02-15T09:21:55;12.57;;;5.75;;
75603;SDS011;64187;51.010;13.792;2023-02-15T09:26:53;17.60;;;7.18;;
75603;SDS011;64187;51.010;13.792;2023-02-15T09:31:52;15.25;;;7.30;;
75603;SDS011;64187;51.010;13.792;2023-02-15T09:36:52;14.70;;;7.35;;
75603;SDS011;64187;51.010;13.792;2023-02-15T09:57:41;17.27;;;7.97;;
75603;SDS011;64187;51.010;13.792;2023-02-15T10:13:41;27.40;;;9.75;;
75603;SDS011;64187;51.010;13.792;2023-02-15T10:24:36;21.52;;;10.10;;
75603;SDS011;64187;51.010;13.792;2023-02-15T10:35:01;21.40;;;9.73;;
75603;SDS011;64187;51.010;13.792;2023-02-15T10:51:02;21.02;;;10.20;;
75603;SDS011;64187;51.010;13.792;2023-02-15T11:06:23;19.60;;;8.60;;
75603;SDS011;64187;51.010;13.792;2023-02-15T11:11:26;19.73;;;8.32;;
75603;SDS011;64187;51.010;13.792;2023-02-15T11:21:40;14.30;;;7.32;;
75603;SDS011;64187;51.010;13.792;2023-02-15T11:26:44;17.63;;;8.00;;
75603;SDS011;64187;51.010;13.792;2023-02-15T11:31:56;21.63;;;8.65;;
75603;SDS011;64187;51.010;13.792;2023-02-15T11:37:01;17.25;;;8.13;;
75603;SDS011;64187;51.010;13.792;2023-02-15T11:42:14;16.98;;;8.75;;
75603;SDS011;64187;51.010;13.792;2023-02-15T11:47:20;19.80;;;8.98;;
75603;SDS011;64187;51.010;13.792;2023-02-15T11:52:19;16.90;;;7.78;;
75603;SDS011;64187;51.010;13.792;2023-02-15T11:57:37;18.75;;;8.63;;
75603;SDS011;64187;51.010;13.792;2023-02-15T12:02:42;17.55;;;8.85;;
75603;SDS011;64187;51.010;13.792;2023-02-15T12:08:01;18.20;;;8.68;;
75603;SDS011;64187;51.010;13.792;2023-02-15T12:23:42;19.33;;;8.57;;
75603;SDS011;64187;51.010;13.792;2023-02-15T12:28:48;16.23;;;8.50;;
75603;SDS011;64187;51.010;13.792;2023-02-15T12:33:51;18.10;;;8.63;;
75603;SDS011;64187;51.010;13.792;2023-02-15T12:39:02;17.23;;;8.70;;
75603;SDS011;64187;51.010;13.792;2023-02-15T12:44:18;18.75;;;8.45;;
75603;SDS011;64187;51.010;13.792;2023-02-15T12:49:21;21.20;;;10.63;;
75603;SDS011;64187;51.010;13.792;2023-02-15T12:59:27;17.90;;;8.05;;
75603;SDS011;64187;51.010;13.792;2023-02-15T13:04:26;17.55;;;9.00;;
75603;SDS011;64187;51.010;13.792;2023-02-15T13:14:33;21.52;;;9.45;;
75603;SDS011;64187;51.010;13.792;2023-02-15T13:19:46;19.50;;;9.88;;
75603;SDS011;64187;51.010;13.792;2023-02-15T13:24:50;18.58;;;9.27;;
75603;SDS011;64187;51.010;13.792;2023-02-15T13:29:53;53.83;;;23.50;;
75603;SDS011;64187;51.010;13.792;2023-02-15T13:34:58;20.38;;;9.82;;
75603;SDS011;64187;51.010;13.792;2023-02-15T13:40:08;19.70;;;10.07;;
75603;SDS011;64187;51.010;13.792;2023-02-15T14:01:50;21.52;;;10.13;;
75603;SDS011;64187;51.010;13.792;2023-02-15T14:23:06;28.15;;;11.05;;
75603;SDS011;64187;51.010;13.792;2023-02-15T14:28:31;27.90;;;11.43;;
75603;SDS011;64187;51.010;13.792;2023-02-15T14:33:38;26.27;;;12.02;;
75603;SDS011;64187;51.010;13.792;2023-02-15T14:38:57;26.45;;;12.15;;
75603;SDS011;64187;51.010;13.792;2023-02-15T14:49:31;24.92;;;12.25;;
75603;SDS011;64187;51.010;13.792;2023-02-15T15:20:47;32.83;;;12.70;;
75603;SDS011;64187;51.010;13.792;2023-02-15T15:30:48;32.30;;;13.50;;
75603;SDS011;64187;51.010;13.792;2023-02-15T15:51:59;32.25;;;12.57;;
75603;SDS011;64187;51.010;13.792;2023-02-15T15:57:01;32.47;;;13.77;;
75603;SDS011;64187;51.010;13.792;2023-02-15T16:02:06;32.25;;;13.35;;
75603;SDS011;64187;51.010;13.792;2023-02-15T16:07:13;33.95;;;13.52;;
75603;SDS011;64187;51.010;13.792;2023-02-15T16:12:15;28.25;;;12.15;;
75603;SDS011;64187;51.010;13.792;2023-02-15T16:17:22;34.33;;;13.52;;
75603;SDS011;64187;51.010;13.792;2023-02-15T16:22:24;35.70;;;13.68;;
75603;SDS011;64187;51.010;13.792;2023-02-15T16:27:35;31.98;;;13.18;;
75603;SDS011;64187;51.010;13.792;2023-02-15T16:32:34;32.40;;;12.98;;
75603;SDS011;64187;51.010;13.792;2023-02-15T16:37:34;32.10;;;13.15;;
75603;SDS011;64187;51.010;13.792;2023-02-15T16:42:35;30.00;;;12.23;;
75603;SDS011;64187;51.010;13.792;2023-02-15T16:47:36;30.58;;;13.73;;
75603;SDS011;64187;51.010;13.792;2023-02-15T16:52:40;34.65;;;14.40;;
75603;SDS011;64187;51.010;13.792;2023-02-15T16:57:42;34.50;;;14.30;;
75603;SDS011;64187;51.010;13.792;2023-02-15T17:02:42;32.58;;;12.77;;
75603;SDS011;64187;51.010;13.792;2023-02-15T17:13:14;36.53;;;13.73;;
75603;SDS011;64187;51.010;13.792;2023-02-15T17:23:30;30.73;;;12.25;;
75603;SDS011;64187;51.010;13.792;2023-02-15T17:28:32;30.17;;;13.05;;
75603;SDS011;64187;51.010;13.792;2023-02-15T17:38:33;35.20;;;15.27;;
75603;SDS011;64187;51.010;13.792;2023-02-15T17:43:32;36.90;;;15.10;;
75603;SDS011;64187;51.010;13.792;2023-02-15T17:48:34;40.70;;;14.40;;
75603;SDS011;64187;51.010;13.792;2023-02-15T17:53:34;40.78;;;16.80;;
75603;SDS011;64187;51.010;13.792;2023-02-15T17:58:33;31.27;;;14.52;;
75603;SDS011;64187;51.010;13.792;2023-02-15T18:09:04;35.40;;;13.60;;
75603;SDS011;64187;51.010;13.792;2023-02-15T18:14:22;36.25;;;14.52;;
75603;SDS011;64187;51.010;13.792;2023-02-15T18:19:22;37.63;;;13.25;;
75603;SDS011;64187;51.010;13.792;2023-02-15T18:24:24;32.65;;;13.73;;
75603;SDS011;64187;51.010;13.792;2023-02-15T18:29:24;40.20;;;14.77;;
75603;SDS011;64187;51.010;13.792;2023-02-15T18:34:27;34.47;;;13.50;;
75603;SDS011;64187;51.010;13.792;2023-02-15T18:39:36;34.00;;;13.52;;
75603;SDS011;64187;51.010;13.792;2023-02-15T18:44:41;38.38;;;13.98;;
75603;SDS011;64187;51.010;13.792;2023-02-15T18:49:42;31.73;;;13.98;;
75603;SDS011;64187;51.010;13.792;2023-02-15T18:54:40;33.53;;;13.05;;
75603;SDS011;64187;51.010;13.792;2023-02-15T18:59:40;33.58;;;13.63;;
75603;SDS011;64187;51.010;13.792;2023-02-15T19:04:39;35.60;;;14.85;;
75603;SDS011;64187;51.010;13.792;2023-02-15T19:09:38;38.58;;;14.77;;
75603;SDS011;64187;51.010;13.792;2023-02-15T19:14:38;40.20;;;15.18;;
75603;SDS011;64187;51.010;13.792;2023-02-15T19:19:37;35.10;;;14.20;;
75603;SDS011;64187;51.010;13.792;2023-02-15T19:24:37;33.78;;;14.30;;
75603;SDS011;64187;51.010;13.792;2023-02-15T19:29:38;34.30;;;14.77;;
75603;SDS011;64187;51.010;13.792;2023-02-15T19:34:37;38.67;;;15.48;;
75603;SDS011;64187;51.010;13.792;2023-02-15T19:39:37;40.80;;;15.85;;
75603;SDS011;64187;51.010;13.792;2023-02-15T19:44:37;39.88;;;14.38;;
75603;SDS011;64187;51.010;13.792;2023-02-15T19:49:41;36.50;;;13.77;;
75603;SDS011;64187;51.010;13.792;2023-02-15T19:54:40;34.30;;;14.45;;
75603;SDS011;64187;51.010;13.792;2023-02-15T19:59:39;37.83;;;14.38;;
75603;SDS011;64187;51.010;13.792;2023-02-15T20:04:38;35.47;;;14.93;;
75603;SDS011;64187;51.010;13.792;2023-02-15T20:09:38;41.83;;;15.30;;
75603;SDS011;64187;51.010;13.792;2023-02-15T20:14:38;38.42;;;15.15;;
75603;SDS011;64187;51.010;13.792;2023-02-15T20:19:39;38.60;;;14.70;;
75603;SDS011;64187;51.010;13.792;2023-02-15T20:24:39;41.17;;;14.93;;
75603;SDS011;64187;51.010;13.792;2023-02-15T20:29:38;38.85;;;13.95;;
75603;SDS011;64187;51.010;13.792;2023-02-15T20:34:37;41.20;;;14.50;;
75603;SDS011;64187;51.010;13.792;2023-02-15T20:39:36;35.90;;;13.70;;
75603;SDS011;64187;51.010;13.792;2023-02-15T20:44:34;38.67;;;14.93;;
75603;SDS011;64187;51.010;13.792;2023-02-15T20:49:33;38.25;;;15.32;;
75603;SDS011;64187;51.010;13.792;2023-02-15T20:54:35;41.90;;;15.68;;
75603;SDS011;64187;51.010;13.792;2023-02-15T20:59:34;29.50;;;11.65;;
75603;SDS011;64187;51.010;13.792;2023-02-15T21:04:34;33.47;;;13.77;;
75603;SDS011;64187;51.010;13.792;2023-02-15T21:09:32;37.67;;;14.30;;
75603;SDS011;64187;51.010;13.792;2023-02-15T21:14:32;30.33;;;13.95;;
75603;SDS011;64187;51.010;13.792;2023-02-15T21:19:31;34.90;;;14.02;;
75603;SDS011;64187;51.010;13.792;2023-02-15T21:24:30;38.97;;;13.75;;
75603;SDS011;64187;51.010;13.792;2023-02-15T21:29:29;35.40;;;13.75;;
75603;SDS011;64187;51.010;13.792;2023-02-15T21:34:28;42.10;;;15.07;;
75603;SDS011;64187;51.010;13.792;2023-02-15T21:39:28;30.10;;;12.70;;
75603;SDS011;64187;51.010;13.792;2023-02-15T21:44:30;32.88;;;12.55;;
75603;SDS011;64187;51.010;13.792;2023-02-15T21:49:48;37.95;;;15.73;;
75603;SDS011;64187;51.010;13.792;2023-02-15T21:54:47;33.17;;;13.23;;
75603;SDS011;64187;51.010;13.792;2023-02-15T21:59:46;36.17;;;14.40;;
75603;SDS011;64187;51.010;13.792;2023-02-15T22:04:45;34.05;;;12.82;;
75603;SDS011;64187;51.010;13.792;2023-02-15T22:09:44;31.05;;;12.88;;
75603;SDS011;64187;51.010;13.792;2023-02-15T22:14:43;30.50;;;12.65;;
75603;SDS011;64187;51.010;13.792;2023-02-15T22:19:47;34.83;;;12.98;;
75603;SDS011;64187;51.010;13.792;2023-02-15T22:24:47;31.85;;;12.20;;
75603;SDS011;64187;51.010;13.792;2023-02-15T22:29:46;28.70;;;11.70;;
75603;SDS011;64187;51.010;13.792;2023-02-15T22:34:46;31.67;;;11.98;;
75603;SDS011;64187;51.010;13.792;2023-02-15T22:39:45;29.52;;;12.65;;
75603;SDS011;64187;51.010;13.792;2023-02-15T22:44:44;30.77;;;13.35;;
75603;SDS011;64187;51.010;13.792;2023-02-15T22:49:44;28.70;;;13.07;;
75603;SDS011;64187;51.010;13.792;2023-02-15T22:54:43;30.13;;;11.63;;
75603;SDS011;64187;51.010;13.792;2023-02-15T22:59:42;31.23;;;12.57;;
75603;SDS011;64187;51.010;13.792;2023-02-15T23:04:41;32.22;;;11.45;;
75603;SDS011;64187;51.010;13.792;2023-02-15T23:09:40;30.70;;;12.80;;
75603;SDS011;64187;51.010;13.792;2023-02-15T23:14:39;31.05;;;11.50;;
75603;SDS011;64187;51.010;13.792;2023-02-15T23:19:38;28.92;;;12.25;;
75603;SDS011;64187;51.010;13.792;2023-02-15T23:24:37;27.00;;;11.40;;
75603;SDS011;64187;51.010;13.792;2023-02-15T23:29:37;29.63;;;11.48;;
75603;SDS011;64187;51.010;13.792;2023-02-15T23:34:36;28.42;;;11.65;;
75603;SDS011;64187;51.010;13.792;2023-02-15T23:39:34;30.90;;;11.90;;
75603;SDS011;64187;51.010;13.792;2023-02-15T23:44:52;28.23;;;11.68;;
75603;SDS011;64187;51.010;13.792;2023-02-15T23:49:51;28.13;;;12.02;;
75603;SDS011;64187;51.010;13.792;2023-02-15T23:54:50;28.75;;;12.05;;
75603;SDS011;64187;51.010;13.792;2023-02-15T23:59:49;30.08;;;11.15;;
